Chimney Rock, CO (81127)

2:37 PM MDT on September 04, 2015 (GMT -0600)
Chimney Rock | | Change Station
CLOSE
Current Station
Personal Weather Station
Location: Bayfield, CO
Elevation: 6457 ft
Nearby Weather Stations

Elev 6457 ft 37.20 °N, 107.34 °W | Updated 1 minute ago

Overcast
Overcast
72.2 °F
Feels Like 77 °F
N
4.0
Wind Variable Wind from NW
Gusts 4.0 mph

Today
High -- | Low -- °F
--% Chance of Precip.
Yesterday
High -- | Low -- °F
Precip. -- in
6:42 AM 7:33 PM
Waning Gibbous, 56% visible
Pressure 30.25 in
Visibility 10.0 miles
Clouds Overcast 6500 ft
Heat Index 77 °F
Dew Point 51 °F
Humidity 48%
Rainfall 0.00 in
Snow Depth Not available.
UV 3 out of 12
Pollen 6.70 out of 12
Air Quality Not available.
Flu Activity Not available.
METAR KPSO 042015Z AUTO 30003KT 10SM OVC065 18/08 A3025 RMK AO2 T01750081
Pressure 30.25 in
Visibility 10.0 miles
Clouds Overcast 6500 ft
Heat Index 77 °F
Dew Point 51 °F
Humidity 48%
Rainfall 0.00 in
Snow Depth Not available.
UV 3 out of 12
Pollen 6.70 out of 12
Air Quality Not available.
Flu Activity Not available.
METAR KPSO 042015Z AUTO 30003KT 10SM OVC065 18/08 A3025 RMK AO2 T01750081

10-Day Weather Forecast

×

Almanac

Astronomy

Sep. 04, 2015 Rise Set
Actual Time
Civil Twilight
Nautical Twilight
Astronomical Twilight
Moon
Length of Visible Light
Length of Day
Tomorrow will be .
, % of the Moon is Illuminated

Today's Extremes

State Highs State Lows

Community

WunderPhotos

Upload Photos

1,852,283 photos uploaded!

WunderBlogs® & News

Nearby

Air Quality

  Air Quality AQ Index Pollutant
Not available.

Snow Depth

Station Depth Elevation

Earthquake Activity

City Distance Mag. Time & Date
Minimum magnitude displayed is 2.5.

Coastal Water Temperatures

Place Temperature

Stations

Nearby Weather Stations

Station Location Temp. Windchill Dew Point Humidity Wind Precip. Elev Updated Type